createdAt,value
2017-05-24T00:00:14.081Z,56.07
2017-05-24T00:00:40.179Z,55.78
2017-05-24T00:01:06.313Z,55.58
2017-05-24T00:01:32.407Z,55.58
2017-05-24T00:01:58.499Z,55.58
2017-05-24T00:02:24.662Z,55.3
2017-05-24T00:02:50.811Z,55.68
2017-05-24T00:03:16.925Z,55.4
2017-05-24T00:03:43.059Z,55.49
2017-05-24T00:04:09.209Z,55.58
2017-05-24T00:04:35.371Z,55.68
2017-05-24T00:05:01.513Z,55.78
2017-05-24T00:05:27.602Z,55.68
2017-05-24T00:05:53.713Z,55.49
2017-05-24T00:06:19.810Z,55.58
2017-05-24T00:06:45.926Z,55.58
2017-05-24T00:07:12.059Z,55.49
2017-05-24T00:07:38.157Z,55.68
2017-05-24T00:08:04.299Z,55.68
2017-05-24T00:08:30.405Z,55.49
2017-05-24T00:08:56.541Z,55.78
2017-05-24T00:09:22.654Z,55.78
2017-05-24T00:09:48.756Z,55.97
2017-05-24T00:10:14.861Z,55.97
2017-05-24T00:10:40.976Z,55.97
2017-05-24T00:11:07.074Z,55.97
2017-05-24T00:11:33.184Z,55.78
2017-05-24T00:11:59.279Z,55.87
2017-05-24T00:12:25.397Z,56.16
2017-05-24T00:12:51.536Z,55.85
2017-05-24T00:13:17.662Z,55.97
2017-05-24T00:13:43.803Z,56.07
2017-05-24T00:14:09.960Z,55.68
2017-05-24T00:14:36.058Z,56.16
2017-05-24T00:15:02.159Z,55.78
2017-05-24T00:15:28.254Z,55.87
2017-05-24T00:15:54.344Z,56.07
2017-05-24T00:16:20.509Z,55.87
2017-05-24T00:16:46.694Z,55.78
2017-05-24T00:17:12.752Z,55.68
2017-05-24T00:17:38.859Z,55.97
2017-05-24T00:18:05.058Z,55.78
2017-05-24T00:18:31.174Z,55.87
2017-05-24T00:18:57.303Z,56.07
2017-05-24T00:19:23.463Z,55.97
2017-05-24T00:19:49.577Z,55.97
2017-05-24T00:20:15.750Z,55.97
2017-05-24T00:20:41.844Z,56.07
2017-05-24T00:21:07.953Z,55.87
2017-05-24T00:21:34.080Z,55.68
2017-05-24T00:22:00.173Z,56.16
2017-05-24T00:22:26.275Z,56.07
2017-05-24T00:22:52.381Z,55.78
2017-05-24T00:23:18.518Z,55.87
2017-05-24T00:23:44.672Z,56.07
2017-05-24T00:24:10.804Z,55.49
2017-05-24T00:24:36.921Z,56.16
2017-05-24T00:25:03.016Z,55.68
2017-05-24T00:25:29.149Z,56.16
2017-05-24T00:25:55.245Z,55.97
2017-05-24T00:26:21.378Z,55.87
2017-05-24T00:26:47.465Z,55.78
2017-05-24T00:27:13.565Z,55.87
2017-05-24T00:27:39.673Z,56.07
2017-05-24T00:28:05.766Z,56.16
2017-05-24T00:28:31.887Z,55.87
2017-05-24T00:28:58.022Z,55.97
2017-05-24T00:29:24.118Z,55.97
2017-05-24T00:29:50.285Z,55.97
2017-05-24T00:30:16.396Z,55.87
2017-05-24T00:30:42.493Z,55.97
2017-05-24T00:31:08.605Z,55.97
2017-05-24T00:31:34.740Z,55.78
2017-05-24T00:32:00.883Z,55.87
2017-05-24T00:32:27.014Z,55.78
2017-05-24T00:32:53.161Z,55.97
2017-05-24T00:33:19.280Z,55.58
2017-05-24T00:33:45.416Z,55.87
2017-05-24T00:34:11.513Z,55.78
2017-05-24T00:34:37.630Z,55.78
2017-05-24T00:35:03.765Z,55.87
2017-05-24T00:35:29.862Z,56.07
2017-05-24T00:35:55.979Z,55.68
2017-05-24T00:36:22.108Z,56.16
2017-05-24T00:36:48.215Z,55.78
2017-05-24T00:37:14.339Z,55.87
2017-05-24T00:37:40.487Z,56.07
2017-05-24T00:38:06.626Z,56.16
2017-05-24T00:38:32.761Z,55.87
2017-05-24T00:38:58.920Z,55.97
2017-05-24T00:39:25.035Z,56.13
2017-05-24T00:39:51.188Z,56.26
2017-05-24T00:40:17.294Z,56.07
2017-05-24T00:40:43.384Z,56.32
2017-05-24T00:41:09.505Z,56.42
2017-05-24T00:41:35.613Z,56.52
2017-05-24T00:42:01.730Z,56.52
2017-05-24T00:42:27.828Z,56.9
2017-05-24T00:42:54.006Z,56.9
2017-05-24T00:43:20.134Z,56.81
2017-05-24T00:43:46.273Z,56.32
2017-05-24T00:44:12.364Z,56.71
2017-05-24T00:44:38.485Z,56.61
2017-05-24T00:45:04.647Z,56.9
2017-05-24T00:45:30.739Z,56.99
2017-05-24T00:45:56.835Z,56.52
2017-05-24T00:46:22.967Z,56.52
2017-05-24T00:46:49.086Z,56.99
2017-05-24T00:47:15.201Z,56.99
2017-05-24T00:47:41.339Z,56.81
2017-05-24T00:48:07.518Z,56.81
2017-05-24T00:48:33.649Z,56.99
2017-05-24T00:48:59.740Z,57.19
2017-05-24T00:49:25.864Z,57.09
2017-05-24T00:49:52.058Z,57.09
2017-05-24T00:50:18.200Z,57.19
2017-05-24T00:50:44.313Z,57.76
2017-05-24T00:51:10.452Z,57.67
2017-05-24T00:51:36.575Z,57.76
2017-05-24T00:52:02.692Z,57.76
2017-05-24T00:52:28.827Z,56.99
2017-05-24T00:52:55.011Z,57.76
2017-05-24T00:53:21.149Z,57.76
2017-05-24T00:53:47.279Z,56.99
2017-05-24T00:54:13.443Z,57.67
2017-05-24T00:54:39.582Z,57.67
2017-05-24T00:55:05.736Z,57.86
2017-05-24T00:55:31.843Z,57.38
2017-05-24T00:55:57.933Z,57.19
2017-05-24T00:56:24.081Z,57.48
2017-05-24T00:56:50.215Z,57.67
2017-05-24T00:57:16.312Z,57.19
2017-05-24T00:57:42.430Z,57.19
2017-05-24T00:58:08.623Z,57.19
2017-05-24T00:58:34.750Z,57.28
2017-05-24T00:59:00.889Z,57.48
2017-05-24T00:59:27.043Z,57.09
2017-05-24T00:59:53.162Z,56.99
2017-05-24T01:00:19.295Z,57.09
2017-05-24T01:00:45.415Z,57.38
2017-05-24T01:01:11.506Z,57.09
2017-05-24T01:01:37.644Z,57.09
2017-05-24T01:02:03.797Z,57.28
2017-05-24T01:02:29.911Z,57.38
2017-05-24T01:02:56.019Z,57.19
2017-05-24T01:03:22.117Z,57.28
2017-05-24T01:03:48.210Z,56.61
2017-05-24T01:04:14.399Z,56.99
2017-05-24T01:04:40.531Z,56.9
2017-05-24T01:05:06.651Z,56.81
2017-05-24T01:05:32.749Z,56.81
2017-05-24T01:05:58.839Z,56.81
2017-05-24T01:06:24.947Z,56.71
2017-05-24T01:06:51.048Z,56.52
2017-05-24T01:07:17.188Z,56.93
2017-05-24T01:07:43.292Z,56.99
2017-05-24T01:08:09.481Z,56.74
2017-05-24T01:08:35.595Z,56.61
2017-05-24T01:09:01.720Z,56.61
2017-05-24T01:09:27.836Z,56.83
2017-05-24T01:09:53.952Z,56.64
2017-05-24T01:10:20.072Z,56.9
2017-05-24T01:10:46.191Z,56.61
2017-05-24T01:11:12.298Z,56.42
2017-05-24T01:11:38.402Z,56.61
2017-05-24T01:12:04.490Z,56.9
2017-05-24T01:12:30.592Z,56.71
2017-05-24T01:12:56.753Z,56.42
2017-05-24T01:13:22.868Z,56.52
2017-05-24T01:13:48.987Z,56.61
2017-05-24T01:14:15.121Z,56.52
2017-05-24T01:14:41.266Z,56.9
2017-05-24T01:15:07.430Z,56.93
2017-05-24T01:15:33.567Z,56.83
2017-05-24T01:15:59.692Z,56.99
2017-05-24T01:16:25.795Z,56.9
2017-05-24T01:16:52.039Z,56.9
2017-05-24T01:17:18.136Z,56.52
2017-05-24T01:17:44.296Z,56.52
2017-05-24T01:18:10.468Z,56.74
2017-05-24T01:18:36.582Z,56.9
2017-05-24T01:19:02.691Z,56.54
2017-05-24T01:19:28.840Z,56.52
2017-05-24T01:19:54.982Z,56.61
2017-05-24T01:20:21.145Z,56.9
2017-05-24T01:20:47.271Z,56.42
2017-05-24T01:21:13.387Z,56.42
2017-05-24T01:21:39.490Z,56.93
2017-05-24T01:22:05.606Z,56.52
2017-05-24T01:22:31.716Z,56.52
2017-05-24T01:22:57.863Z,56.9
2017-05-24T01:23:23.953Z,56.71
2017-05-24T01:23:50.087Z,56.83
2017-05-24T01:24:16.190Z,56.71
2017-05-24T01:24:42.329Z,57.09
2017-05-24T01:25:08.487Z,56.9
2017-05-24T01:25:34.593Z,57.28
2017-05-24T01:26:00.709Z,57.38
2017-05-24T01:26:26.806Z,57.38
2017-05-24T01:26:52.942Z,57.09
2017-05-24T01:27:19.058Z,57.09
2017-05-24T01:27:45.186Z,57.28
2017-05-24T01:28:11.322Z,57.28
2017-05-24T01:28:37.483Z,57.38
2017-05-24T01:29:03.618Z,57.28
2017-05-24T01:29:29.758Z,57.38
2017-05-24T01:29:55.881Z,57.09
2017-05-24T01:30:21.985Z,57.76
2017-05-24T01:30:48.078Z,57.28
2017-05-24T01:31:14.200Z,57.28
2017-05-24T01:31:40.306Z,57.19
2017-05-24T01:32:06.428Z,57.09
2017-05-24T01:32:32.519Z,57.19
2017-05-24T01:32:58.619Z,56.99
2017-05-24T01:33:24.745Z,57.09
2017-05-24T01:33:50.878Z,57.28
2017-05-24T01:34:16.993Z,57.09
2017-05-24T01:34:43.093Z,57.19
2017-05-24T01:35:09.229Z,57.38
2017-05-24T01:35:35.374Z,57.48
2017-05-24T01:36:01.490Z,57.19
2017-05-24T01:36:27.655Z,57.38
2017-05-24T01:36:53.752Z,57.19
2017-05-24T01:37:19.842Z,57.31
2017-05-24T01:37:45.974Z,56.9
2017-05-24T01:38:12.102Z,57.09
2017-05-24T01:38:38.191Z,57.09
2017-05-24T01:39:04.318Z,57.28
2017-05-24T01:39:30.450Z,56.9
2017-05-24T01:39:56.589Z,57.09
2017-05-24T01:40:22.691Z,57.48
2017-05-24T01:40:48.826Z,57.38
2017-05-24T01:41:14.925Z,56.81
2017-05-24T01:41:41.063Z,57.09
2017-05-24T01:42:07.169Z,57.67
2017-05-24T01:42:33.261Z,56.9
2017-05-24T01:42:59.376Z,57.67
2017-05-24T01:43:25.509Z,57.19
2017-05-24T01:43:51.658Z,58.05
2017-05-24T01:44:17.764Z,57.86
2017-05-24T01:44:43.883Z,57.76
2017-05-24T01:45:10.005Z,57.76
2017-05-24T01:45:36.113Z,57.48
2017-05-24T01:46:02.207Z,57.09
2017-05-24T01:46:28.297Z,57.76
2017-05-24T01:46:54.431Z,57.95
2017-05-24T01:47:20.580Z,57.95
2017-05-24T01:47:46.673Z,57.95
2017-05-24T01:48:12.806Z,57.67
2017-05-24T01:48:38.907Z,57.76
2017-05-24T01:49:05.072Z,57.86
2017-05-24T01:49:31.224Z,57.86
2017-05-24T01:49:57.315Z,57.95
2017-05-24T01:50:23.474Z,57.95
2017-05-24T01:50:49.629Z,57.67
2017-05-24T01:51:15.745Z,57.57
2017-05-24T01:51:41.852Z,57.67
2017-05-24T01:52:07.955Z,57.57
2017-05-24T01:52:34.064Z,58.53
2017-05-24T01:53:00.196Z,58.05
2017-05-24T01:53:26.331Z,58.24
2017-05-24T01:53:52.444Z,58.24
2017-05-24T01:54:18.592Z,58.44
2017-05-24T01:54:44.731Z,58.24
2017-05-24T01:55:10.873Z,58.05
2017-05-24T01:55:36.976Z,58.24
2017-05-24T01:56:03.089Z,58.24
2017-05-24T01:56:29.192Z,58.05
2017-05-24T01:56:55.356Z,58.24
2017-05-24T01:57:21.497Z,57.76
2017-05-24T01:57:47.624Z,57.57
2017-05-24T01:58:13.786Z,57.67
2017-05-24T01:58:39.928Z,58.24
2017-05-24T01:59:06.093Z,58.24
2017-05-24T01:59:32.255Z,58.05
2017-05-24T01:59:58.426Z,58.24
2017-05-24T02:00:24.568Z,58.24
2017-05-24T02:00:50.673Z,58.62
2017-05-24T02:01:16.767Z,58.34
2017-05-24T02:01:42.873Z,58.24
2017-05-24T02:02:08.963Z,58.44
2017-05-24T02:02:35.057Z,58.44
2017-05-24T02:03:01.191Z,58.53
2017-05-24T02:03:27.311Z,58.62
2017-05-24T02:03:53.426Z,58.53
2017-05-24T02:04:19.535Z,58.44
2017-05-24T02:04:45.712Z,58.53
2017-05-24T02:05:11.852Z,58.34
2017-05-24T02:05:38.013Z,58.72
2017-05-24T02:06:04.166Z,58.91
2017-05-24T02:06:30.265Z,58.44
2017-05-24T02:06:56.359Z,58.5
2017-05-24T02:07:22.512Z,58.81
2017-05-24T02:07:48.635Z,59.01
2017-05-24T02:08:14.788Z,59.2
2017-05-24T02:08:40.928Z,59.01
2017-05-24T02:09:07.087Z,58.91
2017-05-24T02:09:33.213Z,58.81
2017-05-24T02:09:59.354Z,58.81
2017-05-24T02:10:25.482Z,59.01
2017-05-24T02:10:51.585Z,58.91
2017-05-24T02:11:17.721Z,58.91
2017-05-24T02:11:43.821Z,58.72
2017-05-24T02:12:09.943Z,59.01
2017-05-24T02:12:36.050Z,58.98
2017-05-24T02:13:02.176Z,59.48
2017-05-24T02:13:28.294Z,59.55
2017-05-24T02:13:54.395Z,59.65
2017-05-24T02:14:20.531Z,59.36
2017-05-24T02:14:46.617Z,59.45
2017-05-24T02:15:12.767Z,59.36
2017-05-24T02:15:38.874Z,59.45
2017-05-24T02:16:04.965Z,59.45
2017-05-24T02:16:31.069Z,59.17
2017-05-24T02:16:57.196Z,59.45
2017-05-24T02:17:23.340Z,59.45
2017-05-24T02:17:49.476Z,59.36
2017-05-24T02:18:15.589Z,59.36
2017-05-24T02:18:41.687Z,59.27
2017-05-24T02:19:07.881Z,59.36
2017-05-24T02:19:33.971Z,59.55
2017-05-24T02:20:00.117Z,59.2
2017-05-24T02:20:26.223Z,59.39
2017-05-24T02:20:52.315Z,59.2
2017-05-24T02:21:18.408Z,59.2
2017-05-24T02:21:44.518Z,59.39
2017-05-24T02:22:10.617Z,59.48
2017-05-24T02:22:36.732Z,59.45
2017-05-24T02:23:02.865Z,59.45
2017-05-24T02:23:28.992Z,59.3
2017-05-24T02:23:55.107Z,59.45
2017-05-24T02:24:21.261Z,59.45
2017-05-24T02:24:47.453Z,59.75
2017-05-24T02:25:13.540Z,59.75
2017-05-24T02:25:39.642Z,60.03
2017-05-24T02:26:05.748Z,60.41
2017-05-24T02:26:31.862Z,60.32
2017-05-24T02:26:57.985Z,60.22
2017-05-24T02:27:24.089Z,60.22
2017-05-24T02:27:50.238Z,60.51
2017-05-24T02:28:16.380Z,60.61
2017-05-24T02:28:42.537Z,60.99
2017-05-24T02:29:08.711Z,60.8
2017-05-24T02:29:34.847Z,60.51
2017-05-24T02:30:00.989Z,60.41
2017-05-24T02:30:27.084Z,60.41
2017-05-24T02:30:53.218Z,60.41
2017-05-24T02:31:19.340Z,60.41
2017-05-24T02:31:45.432Z,60.41
2017-05-24T02:32:11.542Z,60.22
2017-05-24T02:32:37.692Z,60.61
2017-05-24T02:33:03.826Z,60.7
2017-05-24T02:33:29.972Z,61.08
2017-05-24T02:33:56.068Z,60.32
2017-05-24T02:34:22.166Z,60.61
2017-05-24T02:34:48.294Z,60.51
2017-05-24T02:35:14.428Z,60.32
2017-05-24T02:35:40.543Z,60.32
2017-05-24T02:36:06.674Z,60.41
2017-05-24T02:36:32.806Z,60.32
2017-05-24T02:36:58.895Z,60.41
2017-05-24T02:37:24.991Z,60.32
2017-05-24T02:37:51.101Z,60.32
2017-05-24T02:38:17.222Z,60.51
2017-05-24T02:38:43.338Z,60.61
2017-05-24T02:39:09.450Z,60.41
2017-05-24T02:39:35.575Z,60.8
2017-05-24T02:40:01.677Z,61.08
2017-05-24T02:40:27.792Z,60.7
2017-05-24T02:40:53.888Z,61.18
2017-05-24T02:41:20.004Z,61.18
2017-05-24T02:41:46.121Z,60.89
2017-05-24T02:42:12.259Z,61.08
2017-05-24T02:42:38.368Z,60.8
2017-05-24T02:43:04.494Z,60.32
2017-05-24T02:43:30.582Z,60.8
2017-05-24T02:43:56.715Z,61.18
2017-05-24T02:44:22.843Z,60.7
2017-05-24T02:44:48.931Z,61.08
2017-05-24T02:45:15.087Z,60.8
2017-05-24T02:45:41.180Z,60.7
2017-05-24T02:46:07.289Z,60.8
2017-05-24T02:46:33.411Z,61.08
2017-05-24T02:46:59.550Z,61.18
2017-05-24T02:47:25.656Z,60.99
2017-05-24T02:47:51.813Z,60.99
2017-05-24T02:48:17.930Z,60.99
2017-05-24T02:48:44.055Z,60.89
2017-05-24T02:49:10.161Z,61.18
2017-05-24T02:49:36.271Z,60.7
2017-05-24T02:50:02.377Z,60.99
2017-05-24T02:50:28.511Z,60.89
2017-05-24T02:50:54.603Z,60.99
2017-05-24T02:51:20.733Z,61.08
2017-05-24T02:51:46.827Z,60.51
2017-05-24T02:52:13.005Z,60.41
2017-05-24T02:52:39.139Z,60.7
2017-05-24T02:53:05.281Z,60.32
2017-05-24T02:53:31.404Z,60.32
2017-05-24T02:53:57.568Z,60.32
2017-05-24T02:54:23.708Z,60.7
2017-05-24T02:54:49.843Z,60.51
2017-05-24T02:55:15.943Z,60.7
2017-05-24T02:55:42.037Z,60.51
2017-05-24T02:56:08.152Z,60.51
2017-05-24T02:56:34.254Z,60.89
2017-05-24T02:57:00.409Z,60.8
2017-05-24T02:57:26.572Z,60.7
2017-05-24T02:57:52.711Z,61.18
2017-05-24T02:58:18.835Z,60.7
2017-05-24T02:58:44.941Z,61.08
2017-05-24T02:59:11.058Z,61.08
2017-05-24T02:59:37.150Z,60.22
2017-05-24T03:00:03.263Z,60.51
2017-05-24T03:00:29.359Z,60.41
2017-05-24T03:00:55.451Z,60.32
2017-05-24T03:01:21.555Z,60.99
2017-05-24T03:01:47.653Z,60.99
2017-05-24T03:02:13.781Z,60.89
2017-05-24T03:02:39.897Z,60.51
2017-05-24T03:03:06.014Z,60.22
2017-05-24T03:03:32.146Z,60.7
2017-05-24T03:03:58.295Z,60.61
2017-05-24T03:04:24.437Z,60.8
2017-05-24T03:04:50.546Z,60.7
2017-05-24T03:05:16.642Z,60.51
2017-05-24T03:05:42.758Z,60.22
2017-05-24T03:06:08.907Z,60.32
2017-05-24T03:06:35.070Z,60.51
2017-05-24T03:07:01.156Z,60.32
2017-05-24T03:07:27.256Z,60.41
2017-05-24T03:07:53.362Z,60.51
2017-05-24T03:08:19.479Z,60.61
2017-05-24T03:08:45.651Z,60.41
2017-05-24T03:09:11.786Z,60.32
2017-05-24T03:09:37.907Z,60.51
2017-05-24T03:10:04.023Z,60.13
2017-05-24T03:10:30.132Z,60.03
2017-05-24T03:10:56.253Z,60.41
2017-05-24T03:11:22.344Z,60.22
2017-05-24T03:11:48.479Z,60.41
2017-05-24T03:12:14.637Z,60.25
2017-05-24T03:12:40.752Z,59.94
2017-05-24T03:13:06.886Z,59.65
2017-05-24T03:13:33.029Z,59.97
2017-05-24T03:13:59.159Z,59.75
2017-05-24T03:14:25.288Z,59.75
2017-05-24T03:14:51.404Z,59.65
2017-05-24T03:15:17.507Z,59.55
2017-05-24T03:15:43.609Z,59.94
2017-05-24T03:16:09.697Z,59.65
2017-05-24T03:16:35.802Z,60.03
2017-05-24T03:17:01.965Z,59.94
2017-05-24T03:17:28.078Z,60.13
2017-05-24T03:17:54.233Z,59.45
2017-05-24T03:18:20.395Z,60.03
2017-05-24T03:18:46.511Z,60.03
2017-05-24T03:19:12.613Z,60.51
2017-05-24T03:19:38.730Z,60.41
2017-05-24T03:20:04.937Z,60.41
2017-05-24T03:20:31.043Z,60.32
2017-05-24T03:20:57.133Z,59.65
2017-05-24T03:21:23.257Z,59.75
2017-05-24T03:21:49.387Z,59.65
2017-05-24T03:22:15.479Z,59.84
2017-05-24T03:22:41.577Z,60.25
2017-05-24T03:23:07.740Z,60.25
2017-05-24T03:23:33.884Z,59.75
2017-05-24T03:24:00.027Z,59.84
2017-05-24T03:24:26.158Z,59.94
2017-05-24T03:24:52.310Z,60.22
2017-05-24T03:25:18.416Z,60.13
2017-05-24T03:25:44.531Z,60.03
2017-05-24T03:26:10.651Z,60.22
2017-05-24T03:26:36.784Z,60.13
2017-05-24T03:27:02.880Z,59.94
2017-05-24T03:27:28.969Z,60.22
2017-05-24T03:27:55.081Z,60.03
2017-05-24T03:28:21.205Z,60.41
2017-05-24T03:28:47.295Z,59.94
2017-05-24T03:29:13.459Z,60.13
2017-05-24T03:29:39.586Z,59.94
2017-05-24T03:30:05.714Z,60.22
2017-05-24T03:30:31.834Z,60.61
2017-05-24T03:30:57.926Z,60.22
2017-05-24T03:31:24.120Z,60.41
2017-05-24T03:31:50.181Z,60.32
2017-05-24T03:32:16.272Z,60.13
2017-05-24T03:32:42.410Z,60.41
2017-05-24T03:33:08.538Z,60.54
2017-05-24T03:33:34.630Z,60.06
2017-05-24T03:34:00.787Z,60.16
2017-05-24T03:34:26.952Z,60.16
2017-05-24T03:34:53.042Z,59.58
2017-05-24T03:35:19.142Z,59.48
2017-05-24T03:35:45.262Z,60.35
2017-05-24T03:36:11.367Z,59.68
2017-05-24T03:36:37.498Z,59.87
2017-05-24T03:37:03.589Z,59.3
2017-05-24T03:37:29.691Z,59.39
2017-05-24T03:37:55.825Z,59.48
2017-05-24T03:38:21.990Z,59.2
2017-05-24T03:38:48.142Z,59.11
2017-05-24T03:39:14.304Z,59.39
2017-05-24T03:39:40.481Z,59.39
2017-05-24T03:40:06.541Z,59.3
2017-05-24T03:40:32.647Z,59.48
2017-05-24T03:40:58.740Z,59.48
2017-05-24T03:41:24.875Z,58.81
2017-05-24T03:41:50.989Z,58.91
2017-05-24T03:42:17.117Z,58.72
2017-05-24T03:42:43.223Z,58.72
2017-05-24T03:43:09.390Z,58.44
2017-05-24T03:43:35.540Z,58.62
2017-05-24T03:44:01.678Z,58.62
2017-05-24T03:44:27.822Z,58.91
2017-05-24T03:44:53.912Z,58.81
2017-05-24T03:45:20.070Z,58.53
2017-05-24T03:45:46.168Z,58.81
2017-05-24T03:46:12.284Z,58.62
2017-05-24T03:46:38.390Z,58.53
2017-05-24T03:47:04.533Z,58.53
2017-05-24T03:47:30.639Z,58.72
2017-05-24T03:47:56.759Z,58.24
2017-05-24T03:48:22.899Z,58.81
2017-05-24T03:48:49.062Z,58.72
2017-05-24T03:49:15.212Z,58.05
2017-05-24T03:49:41.303Z,58.53
2017-05-24T03:50:07.438Z,58.62
2017-05-24T03:50:33.569Z,58.34
2017-05-24T03:50:59.660Z,58.44
2017-05-24T03:51:25.791Z,58.24
2017-05-24T03:51:51.952Z,58.53
2017-05-24T03:52:18.068Z,58.24
2017-05-24T03:52:44.195Z,58.05
2017-05-24T03:53:10.360Z,58.62
2017-05-24T03:53:36.528Z,58.81
2017-05-24T03:54:02.647Z,58.53
2017-05-24T03:54:28.782Z,58.81
2017-05-24T03:54:54.878Z,58.62
2017-05-24T03:55:20.991Z,58.72
2017-05-24T03:55:47.092Z,58.34
2017-05-24T03:56:13.190Z,58.62
2017-05-24T03:56:39.280Z,58.81
2017-05-24T03:57:05.440Z,58.53
2017-05-24T03:57:31.542Z,58.62
2017-05-24T03:57:57.644Z,58.91
2017-05-24T03:58:23.791Z,58.91
2017-05-24T03:58:49.883Z,58.72
2017-05-24T03:59:15.992Z,58.72
2017-05-24T03:59:42.117Z,59.01
2017-05-24T04:00:08.233Z,59.01
2017-05-24T04:00:34.398Z,59.01
2017-05-24T04:01:00.498Z,58.91
2017-05-24T04:01:26.612Z,58.91
2017-05-24T04:01:52.715Z,58.62
2017-05-24T04:02:18.824Z,58.72
2017-05-24T04:02:44.962Z,59.01
2017-05-24T04:03:11.086Z,58.81
2017-05-24T04:03:37.207Z,59.01
2017-05-24T04:04:03.341Z,59.01
2017-05-24T04:04:29.524Z,58.91
2017-05-24T04:04:55.614Z,59.39
2017-05-24T04:05:21.742Z,59.58
2017-05-24T04:05:47.847Z,59.39
2017-05-24T04:06:13.939Z,59.58
2017-05-24T04:06:40.062Z,59.77
2017-05-24T04:07:06.169Z,59.58
2017-05-24T04:07:32.261Z,59.39
2017-05-24T04:07:58.383Z,59.48
2017-05-24T04:08:24.518Z,59.3
2017-05-24T04:08:50.642Z,59.3
2017-05-24T04:09:16.776Z,59.39
2017-05-24T04:09:42.889Z,59.48
2017-05-24T04:10:09.013Z,59.11
2017-05-24T04:10:35.117Z,59.01
2017-05-24T04:11:01.209Z,58.91
2017-05-24T04:11:27.329Z,59.01
2017-05-24T04:11:53.494Z,58.81
2017-05-24T04:12:19.587Z,58.91
2017-05-24T04:12:45.755Z,59.77
2017-05-24T04:13:11.939Z,59.39
2017-05-24T04:13:38.036Z,59.3
2017-05-24T04:14:04.174Z,58.81
2017-05-24T04:14:30.304Z,59.01
2017-05-24T04:14:56.422Z,59.01
2017-05-24T04:15:22.528Z,59.77
2017-05-24T04:15:48.674Z,59.48
2017-05-24T04:16:14.764Z,59.39
2017-05-24T04:16:40.903Z,59.77
2017-05-24T04:17:06.999Z,59.48
2017-05-24T04:17:33.090Z,59.77
2017-05-24T04:17:59.224Z,59.3
2017-05-24T04:18:25.354Z,59.3
2017-05-24T04:18:51.492Z,59.68
2017-05-24T04:19:17.596Z,59.39
2017-05-24T04:19:43.704Z,59.11
2017-05-24T04:20:09.848Z,58.81
2017-05-24T04:20:35.945Z,59.58
2017-05-24T04:21:02.035Z,59.01
2017-05-24T04:21:28.170Z,59.2
2017-05-24T04:21:54.301Z,59.68
2017-05-24T04:22:20.391Z,59.39
2017-05-24T04:22:46.524Z,59.48
2017-05-24T04:23:12.631Z,59.58
2017-05-24T04:23:38.742Z,59.48
2017-05-24T04:24:04.867Z,59.48
2017-05-24T04:24:30.975Z,59.39
2017-05-24T04:24:57.118Z,59.39
2017-05-24T04:25:23.326Z,59.68
2017-05-24T04:25:49.364Z,59.68
2017-05-24T04:26:15.466Z,59.58
2017-05-24T04:26:41.600Z,59.48
2017-05-24T04:27:07.689Z,59.3
2017-05-24T04:27:33.789Z,59.39
2017-05-24T04:27:59.951Z,59.48
2017-05-24T04:28:26.094Z,59.58
2017-05-24T04:28:52.216Z,59.39
2017-05-24T04:29:18.322Z,59.48
2017-05-24T04:29:44.466Z,58.62
2017-05-24T04:30:10.583Z,58.62
2017-05-24T04:30:36.718Z,58.72
2017-05-24T04:31:02.814Z,58.72
2017-05-24T04:31:28.946Z,58.53
2017-05-24T04:31:55.038Z,58.53
2017-05-24T04:32:21.163Z,58.53
2017-05-24T04:32:47.296Z,58.72
2017-05-24T04:33:13.389Z,58.81
2017-05-24T04:33:39.482Z,58.44
2017-05-24T04:34:05.647Z,58.27
2017-05-24T04:34:31.801Z,58.44
2017-05-24T04:34:57.893Z,58.53
2017-05-24T04:35:24.000Z,58.34
2017-05-24T04:35:50.100Z,58.17
2017-05-24T04:36:16.189Z,58.05
2017-05-24T04:36:42.296Z,58.17
2017-05-24T04:37:08.403Z,58.44
2017-05-24T04:37:34.490Z,58.37
2017-05-24T04:38:00.642Z,58.37
2017-05-24T04:38:26.779Z,57.6
2017-05-24T04:38:52.872Z,58.27
2017-05-24T04:39:19.038Z,58.27
2017-05-24T04:39:45.174Z,58.27
2017-05-24T04:40:11.294Z,58.27
2017-05-24T04:40:37.411Z,57.89
2017-05-24T04:41:03.520Z,57.6
2017-05-24T04:41:29.618Z,57.98
2017-05-24T04:41:55.733Z,57.7
2017-05-24T04:42:21.865Z,57.98
2017-05-24T04:42:47.960Z,58.17
2017-05-24T04:43:14.066Z,57.41
2017-05-24T04:43:40.164Z,57.79
2017-05-24T04:44:06.327Z,57.7
2017-05-24T04:44:32.492Z,57.43
2017-05-24T04:44:58.643Z,57.82
2017-05-24T04:45:24.759Z,57.53
2017-05-24T04:45:50.893Z,56.96
2017-05-24T04:46:16.993Z,56.96
2017-05-24T04:46:43.107Z,56.57
2017-05-24T04:47:09.238Z,57.06
2017-05-24T04:47:35.379Z,56.57
2017-05-24T04:48:01.544Z,56.86
2017-05-24T04:48:27.724Z,56.96
2017-05-24T04:48:53.842Z,56.96
2017-05-24T04:49:19.971Z,56.96
2017-05-24T04:49:46.072Z,56.86
2017-05-24T04:50:12.162Z,56.19
2017-05-24T04:50:38.267Z,56.86
2017-05-24T04:51:04.373Z,56.86
2017-05-24T04:51:30.461Z,57.06
2017-05-24T04:51:56.561Z,56.48
2017-05-24T04:52:22.723Z,56.38
2017-05-24T04:52:48.844Z,56.48
2017-05-24T04:53:14.939Z,56.38
2017-05-24T04:53:41.036Z,56.48
2017-05-24T04:54:07.138Z,56.67
2017-05-24T04:54:33.271Z,56.38
2017-05-24T04:54:59.384Z,56.48
2017-05-24T04:55:25.506Z,56.57
2017-05-24T04:55:51.644Z,56.19
2017-05-24T04:56:17.761Z,56.29
2017-05-24T04:56:43.859Z,55.9
2017-05-24T04:57:09.968Z,56
2017-05-24T04:57:36.085Z,55.8
2017-05-24T04:58:02.273Z,56
2017-05-24T04:58:28.384Z,55.9
2017-05-24T04:58:54.510Z,55.8
2017-05-24T04:59:20.627Z,55.9
2017-05-24T04:59:46.761Z,56.19
2017-05-24T05:00:12.891Z,55.9
2017-05-24T05:00:39.007Z,55.71
2017-05-24T05:01:05.137Z,55.9
2017-05-24T05:01:31.242Z,56.09
2017-05-24T05:01:57.335Z,55.55
2017-05-24T05:02:23.434Z,55.74
2017-05-24T05:02:49.542Z,55.62
2017-05-24T05:03:15.736Z,55.74
2017-05-24T05:03:41.833Z,55.64
2017-05-24T05:04:07.997Z,55.55
2017-05-24T05:04:34.118Z,55.55
2017-05-24T05:05:00.280Z,55.83
2017-05-24T05:05:26.394Z,55.74
2017-05-24T05:05:52.517Z,55.16
2017-05-24T05:06:18.623Z,55.07
2017-05-24T05:06:45.578Z,55.35
2017-05-24T05:07:13.603Z,54.97
2017-05-24T05:07:39.651Z,54.88
2017-05-24T05:08:05.804Z,54.88
2017-05-24T05:08:31.941Z,55.07
2017-05-24T05:08:58.105Z,55.16
2017-05-24T05:09:24.302Z,54.88
2017-05-24T05:09:51.642Z,54.97
2017-05-24T05:10:19.521Z,54.68
2017-05-24T05:10:47.204Z,54.97
2017-05-24T05:11:13.611Z,55.07
2017-05-24T05:11:41.663Z,54.49
2017-05-24T05:12:09.407Z,54.39
2017-05-24T05:12:36.372Z,54.21
2017-05-24T05:13:03.862Z,54.78
2017-05-24T05:13:31.975Z,54.68
2017-05-24T05:13:59.600Z,54.49
2017-05-24T05:14:26.994Z,54.49
2017-05-24T05:14:53.505Z,54.8
2017-05-24T05:15:19.638Z,54.68
2017-05-24T05:15:45.775Z,54.8
2017-05-24T05:16:11.868Z,54.49
2017-05-24T05:16:37.962Z,54.8
2017-05-24T05:17:04.078Z,54.39
2017-05-24T05:17:30.215Z,54.68
2017-05-24T05:17:56.342Z,54.78
2017-05-24T05:18:22.437Z,54.88
2017-05-24T05:18:48.570Z,54.39
2017-05-24T05:19:14.732Z,55.64
2017-05-24T05:19:40.894Z,56.89
2017-05-24T05:20:07.021Z,55.86
2017-05-24T05:20:33.158Z,55.29
2017-05-24T05:20:59.250Z,54.13
2017-05-24T05:21:25.374Z,55.67
2017-05-24T05:21:51.481Z,56.05
2017-05-24T05:22:17.578Z,55.57
2017-05-24T05:22:43.694Z,55.29
2017-05-24T05:23:09.831Z,54.33
2017-05-24T05:23:35.986Z,54.23
2017-05-24T05:24:02.128Z,53.75
2017-05-24T05:24:28.322Z,53.75
2017-05-24T05:24:54.454Z,53.36
2017-05-24T05:25:20.596Z,53.56
2017-05-24T05:25:46.702Z,54.61
2017-05-24T05:26:12.808Z,54.42
2017-05-24T05:26:38.897Z,54.04
2017-05-24T05:27:04.998Z,53.58
2017-05-24T05:27:31.117Z,53.39
2017-05-24T05:27:57.252Z,52.98
2017-05-24T05:28:23.384Z,52.79
2017-05-24T05:28:49.498Z,52.79
2017-05-24T05:29:15.630Z,52.6
2017-05-24T05:29:41.817Z,52.98
2017-05-24T05:30:07.932Z,52.81
2017-05-24T05:30:34.034Z,52.62
2017-05-24T05:31:00.143Z,52.72
2017-05-24T05:31:26.233Z,52.43
2017-05-24T05:31:52.361Z,52.91
2017-05-24T05:32:18.494Z,52.62
2017-05-24T05:32:44.614Z,52.53
2017-05-24T05:33:10.752Z,53.01
2017-05-24T05:33:36.867Z,52.65
2017-05-24T05:34:02.992Z,52.08
2017-05-24T05:34:29.153Z,52.36
2017-05-24T05:34:55.245Z,52.26
2017-05-24T05:35:21.366Z,52.65
2017-05-24T05:35:47.501Z,52.94
2017-05-24T05:36:13.623Z,52.17
2017-05-24T05:36:39.757Z,51.88
2017-05-24T05:37:05.867Z,51.21
2017-05-24T05:37:31.965Z,51.31
2017-05-24T05:37:58.106Z,51.11